Time,TemperatureF,DewpointF,PressureIn,WindDirection,WindDirectionDegrees,WindSpeedMPH,WindSpeedGustMPH,Humidity,HourlyPrecipIn,Conditions,Clouds,dailyrainin,SoftwareType,DateUTC
2013-06-07 00:00:00,56.7,55.9,30.03,WNW,296,0.0,2.0,97,0.07,,,0.15,VWS V14.01,2013-06-07 04:00:00,
2013-06-07 00:01:00,56.7,55.9,30.04,WNW,296,0.0,0.0,97,0.03,,,0.00,VWS V14.01,2013-06-07 04:01:00,
2013-06-07 00:02:00,56.6,55.8,30.04,WNW,296,0.0,1.0,97,0.03,,,0.00,VWS V14.01,2013-06-07 04:02:00,
2013-06-07 00:07:00,56.6,55.8,30.04,WNW,296,0.0,1.0,97,0.03,,,0.00,VWS V14.01,2013-06-07 04:07:00,
2013-06-07 00:12:00,56.6,55.8,30.04,WNW,296,0.0,1.0,97,0.03,,,0.00,VWS V14.01,2013-06-07 04:12:00,
2013-06-07 00:17:00,56.7,55.9,30.04,WNW,296,0.0,1.0,97,0.03,,,0.00,VWS V14.01,2013-06-07 04:17:00,
2013-06-07 00:22:00,56.7,55.9,30.03,WNW,296,0.0,1.0,97,0.03,,,0.00,VWS V14.01,2013-06-07 04:22:00,
2013-06-07 00:27:00,56.7,55.9,30.03,WNW,296,0.0,1.0,97,0.03,,,0.00,VWS V14.01,2013-06-07 04:27:00,
2013-06-07 00:32:00,56.7,55.9,30.03,WNW,296,0.0,0.0,97,0.01,,,0.00,VWS V14.01,2013-06-07 04:32:00,
2013-06-07 00:37:00,56.7,55.9,30.03,WNW,296,0.0,0.0,97,0.01,,,0.00,VWS V14.01,2013-06-07 04:37:00,
2013-06-07 00:42:00,56.7,55.9,30.03,WNW,296,0.0,0.0,97,0.01,,,0.00,VWS V14.01,2013-06-07 04:42:00,
2013-06-07 00:47:00,56.7,56.1,30.03,WNW,296,0.0,0.0,98,0.01,,,0.00,VWS V14.01,2013-06-07 04:47:00,
2013-06-07 00:52:00,56.7,56.1,30.02,WNW,296,0.0,0.0,98,0.01,,,0.00,VWS V14.01,2013-06-07 04:52:00,
2013-06-07 00:57:00,56.7,56.1,30.02,WNW,296,0.0,0.0,98,0.01,,,0.00,VWS V14.01,2013-06-07 04:57:00,
2013-06-07 01:02:00,56.6,56.0,30.02,WNW,296,0.0,0.0,98,0.00,,,0.00,VWS V14.01,2013-06-07 05:02:00,
2013-06-07 01:07:00,56.6,56.0,30.02,WNW,296,0.0,0.0,98,0.00,,,0.00,VWS V14.01,2013-06-07 05:07:00,
2013-06-07 01:12:00,56.6,56.0,30.02,WNW,296,0.0,0.0,98,0.00,,,0.00,VWS V14.01,2013-06-07 05:12:00,
2013-06-07 01:18:00,56.6,56.0,30.02,WNW,296,0.0,0.0,98,0.00,,,0.00,VWS V14.01,2013-06-07 05:18:00,
2013-06-07 01:23:00,56.6,56.0,30.02,WNW,296,0.0,0.0,98,0.00,,,0.00,VWS V14.01,2013-06-07 05:23:00,
2013-06-07 01:28:00,56.5,55.9,30.01,WNW,296,0.0,0.0,98,0.00,,,0.00,VWS V14.01,2013-06-07 05:28:00,
2013-06-07 01:33:00,56.5,55.9,30.01,WNW,296,0.0,0.0,98,0.00,,,0.00,VWS V14.01,2013-06-07 05:33:00,
2013-06-07 01:38:00,56.5,55.9,30.01,WNW,296,0.0,0.0,98,0.00,,,0.00,VWS V14.01,2013-06-07 05:38:00,
2013-06-07 01:43:00,56.4,55.8,30.00,WNW,296,0.0,1.0,98,0.00,,,0.00,VWS V14.01,2013-06-07 05:43:00,
2013-06-07 01:48:00,56.5,55.9,30.00,WNW,296,0.0,1.0,98,0.00,,,0.00,VWS V14.01,2013-06-07 05:48:00,
2013-06-07 01:53:00,56.4,55.8,29.99,WNW,296,0.0,1.0,98,0.01,,,0.01,VWS V14.01,2013-06-07 05:53:00,
2013-06-07 01:58:00,56.4,55.8,29.99,WNW,296,0.0,1.0,98,0.01,,,0.01,VWS V14.01,2013-06-07 05:58:00,
2013-06-07 02:04:00,56.4,55.8,29.99,WNW,296,0.0,0.0,98,0.01,,,0.01,VWS V14.01,2013-06-07 06:04:00,
2013-06-07 02:09:00,56.4,55.8,30.00,WNW,292,0.0,2.0,98,0.01,,,0.01,VWS V14.01,2013-06-07 06:09:00,
2013-06-07 02:14:00,56.4,55.8,29.99,WNW,292,0.0,2.0,98,0.01,,,0.01,VWS V14.01,2013-06-07 06:14:00,
2013-06-07 02:19:00,56.4,55.8,29.99,WNW,292,0.0,2.0,98,0.01,,,0.01,VWS V14.01,2013-06-07 06:19:00,
2013-06-07 02:24:00,56.5,55.9,29.99,WNW,292,0.0,2.0,98,0.01,,,0.01,VWS V14.01,2013-06-07 06:24:00,
2013-06-07 02:29:00,56.5,55.9,29.99,WNW,292,0.0,2.0,98,0.01,,,0.01,VWS V14.01,2013-06-07 06:29:00,
2013-06-07 02:34:00,56.5,55.9,29.99,WNW,292,0.0,0.0,98,0.01,,,0.01,VWS V14.01,2013-06-07 06:34:00,
2013-06-07 02:39:00,56.6,56.0,29.99,WNW,292,0.0,2.0,98,0.01,,,0.01,VWS V14.01,2013-06-07 06:39:00,
2013-06-07 02:44:00,56.6,56.0,29.99,WNW,292,0.0,2.0,98,0.01,,,0.01,VWS V14.01,2013-06-07 06:44:00,
2013-06-07 02:49:00,56.7,56.1,29.99,WNW,292,0.0,2.0,98,0.01,,,0.01,VWS V14.01,2013-06-07 06:49:00,
2013-06-07 02:54:00,56.8,56.2,29.98,WNW,289,0.0,3.0,98,0.01,,,0.01,VWS V14.01,2013-06-07 06:54:00,
2013-06-07 02:59:00,56.8,56.2,29.98,WNW,289,0.0,3.0,98,0.01,,,0.01,VWS V14.01,2013-06-07 06:59:00,
2013-06-07 03:05:00,56.8,56.2,29.97,WNW,296,0.0,4.0,98,0.00,,,0.01,VWS V14.01,2013-06-07 07:05:00,
2013-06-07 03:10:00,56.8,56.2,29.97,West,263,0.0,4.0,98,0.00,,,0.01,VWS V14.01,2013-06-07 07:10:00,
2013-06-07 03:15:00,56.9,56.3,29.97,West,266,0.0,4.0,98,0.00,,,0.01,VWS V14.01,2013-06-07 07:15:00,
2013-06-07 03:20:00,56.9,56.3,29.97,West,266,0.0,4.0,98,0.00,,,0.01,VWS V14.01,2013-06-07 07:20:00,
2013-06-07 03:25:00,56.9,56.3,29.97,NNE,28,2.0,4.0,98,0.00,,,0.01,VWS V14.01,2013-06-07 07:25:00,
2013-06-07 03:30:00,56.9,56.3,29.97,NNE,24,0.0,4.0,98,0.00,,,0.01,VWS V14.01,2013-06-07 07:30:00,
2013-06-07 03:35:00,56.9,56.3,29.97,NE,47,0.0,4.0,98,0.00,,,0.01,VWS V14.01,2013-06-07 07:35:00,
2013-06-07 03:40:00,57.0,56.4,29.97,NE,49,0.0,4.0,98,0.00,,,0.01,VWS V14.01,2013-06-07 07:40:00,
2013-06-07 03:45:00,57.0,56.4,29.97,NE,49,0.0,4.0,98,0.00,,,0.01,VWS V14.01,2013-06-07 07:45:00,
2013-06-07 03:50:00,57.1,56.5,29.97,NE,47,0.0,4.0,98,0.00,,,0.01,VWS V14.01,2013-06-07 07:50:00,
2013-06-07 03:55:00,57.0,56.4,29.97,WNW,296,0.0,4.0,98,0.00,,,0.01,VWS V14.01,2013-06-07 07:55:00,
2013-06-07 04:00:00,57.1,56.5,29.96,WNW,296,0.0,4.0,98,0.00,,,0.01,VWS V14.01,2013-06-07 08:00:00,
2013-06-07 04:05:00,57.1,56.5,29.97,WNW,296,0.0,1.0,98,0.00,,,0.01,VWS V14.01,2013-06-07 08:05:00,
2013-06-07 04:10:00,57.0,56.4,29.96,WNW,296,0.0,1.0,98,0.00,,,0.01,VWS V14.01,2013-06-07 08:10:00,
2013-06-07 04:15:00,57.1,56.5,29.96,WNW,296,0.0,1.0,98,0.00,,,0.01,VWS V14.01,2013-06-07 08:15:00,
2013-06-07 04:20:00,57.1,56.5,29.96,WNW,296,0.0,1.0,98,0.00,,,0.01,VWS V14.01,2013-06-07 08:20:00,
2013-06-07 04:25:00,57.1,56.5,29.96,NNW,345,0.0,2.0,98,0.01,,,0.02,VWS V14.01,2013-06-07 08:25:00,
2013-06-07 04:30:00,57.1,56.5,29.96,NNW,345,0.0,2.0,98,0.01,,,0.02,VWS V14.01,2013-06-07 08:30:00,
2013-06-07 04:35:00,57.0,56.4,29.96,NNW,345,0.0,2.0,98,0.02,,,0.03,VWS V14.01,2013-06-07 08:35:00,
2013-06-07 04:40:00,56.9,56.1,29.96,North,360,0.0,2.0,97,0.02,,,0.03,VWS V14.01,2013-06-07 08:40:00,
2013-06-07 04:45:00,56.8,56.0,29.96,North,360,0.0,2.0,97,0.02,,,0.03,VWS V14.01,2013-06-07 08:45:00,
2013-06-07 04:51:00,56.8,56.0,29.96,North,360,0.0,2.0,97,0.02,,,0.03,VWS V14.01,2013-06-07 08:51:00,
2013-06-07 04:56:00,56.7,55.9,29.96,North,360,0.0,2.0,97,0.02,,,0.03,VWS V14.01,2013-06-07 08:56:00,
2013-06-07 05:01:00,56.6,55.8,29.97,WNW,289,0.0,0.0,97,0.02,,,0.03,VWS V14.01,2013-06-07 09:01:00,
2013-06-07 05:06:00,56.6,55.8,29.97,WNW,289,0.0,0.0,97,0.02,,,0.03,VWS V14.01,2013-06-07 09:06:00,
2013-06-07 05:11:00,56.6,55.8,29.97,WNW,289,0.0,0.0,97,0.03,,,0.04,VWS V14.01,2013-06-07 09:11:00,
2013-06-07 05:16:00,56.6,56.0,29.97,WNW,289,0.0,0.0,98,0.04,,,0.05,VWS V14.01,2013-06-07 09:16:00,
2013-06-07 05:21:00,56.6,56.0,29.96,WNW,289,0.0,0.0,98,0.04,,,0.05,VWS V14.01,2013-06-07 09:21:00,
2013-06-07 05:26:00,56.6,56.0,29.96,WNW,289,0.0,0.0,98,0.04,,,0.05,VWS V14.01,2013-06-07 09:26:00,
2013-06-07 05:31:00,56.5,55.9,29.96,WNW,289,0.0,1.0,98,0.03,,,0.05,VWS V14.01,2013-06-07 09:31:00,
2013-06-07 05:36:00,56.4,55.8,29.96,WNW,289,0.0,1.0,98,0.03,,,0.05,VWS V14.01,2013-06-07 09:36:00,
2013-06-07 05:41:00,56.4,55.8,29.96,WNW,289,0.0,1.0,98,0.03,,,0.05,VWS V14.01,2013-06-07 09:41:00,
2013-06-07 05:46:00,56.4,55.8,29.96,WNW,296,0.0,1.0,98,0.04,,,0.06,VWS V14.01,2013-06-07 09:46:00,
2013-06-07 05:51:00,56.3,55.8,29.96,WNW,294,0.0,3.0,98,0.04,,,0.06,VWS V14.01,2013-06-07 09:51:00,
2013-06-07 05:57:00,56.3,55.5,29.96,WNW,294,0.0,3.0,97,0.04,,,0.06,VWS V14.01,2013-06-07 09:57:00,
2013-06-07 06:02:00,56.3,55.5,29.96,WNW,294,0.0,1.0,97,0.03,,,0.06,VWS V14.01,2013-06-07 10:02:00,
2013-06-07 06:07:00,56.3,55.5,29.96,WNW,294,0.0,1.0,97,0.04,,,0.07,VWS V14.01,2013-06-07 10:07:00,
2013-06-07 06:12:00,56.2,55.4,29.97,WNW,292,0.0,3.0,97,0.04,,,0.07,VWS V14.01,2013-06-07 10:12:00,
2013-06-07 06:17:00,56.2,55.4,29.96,WNW,292,0.0,3.0,97,0.04,,,0.07,VWS V14.01,2013-06-07 10:17:00,
2013-06-07 06:22:00,56.2,55.4,29.96,WNW,292,0.0,3.0,97,0.04,,,0.07,VWS V14.01,2013-06-07 10:22:00,
2013-06-07 06:27:00,56.0,55.2,29.97,WNW,285,2.0,3.0,97,0.04,,,0.07,VWS V14.01,2013-06-07 10:27:00,
2013-06-07 06:32:00,55.9,55.1,29.96,WNW,292,0.0,1.0,97,0.02,,,0.07,VWS V14.01,2013-06-07 10:32:00,
2013-06-07 06:37:00,55.8,55.0,29.96,WNW,292,0.0,1.0,97,0.02,,,0.07,VWS V14.01,2013-06-07 10:37:00,
2013-06-07 06:42:00,55.9,55.1,29.96,WNW,292,0.0,1.0,97,0.02,,,0.07,VWS V14.01,2013-06-07 10:42:00,
2013-06-07 06:47:00,55.9,55.1,29.96,WNW,292,0.0,1.0,97,0.03,,,0.08,VWS V14.01,2013-06-07 10:47:00,
2013-06-07 06:52:00,55.9,55.1,29.96,North,355,1.0,4.0,97,0.04,,,0.09,VWS V14.01,2013-06-07 10:52:00,
2013-06-07 06:57:00,55.8,55.0,29.96,North,355,0.0,4.0,97,0.04,,,0.09,VWS V14.01,2013-06-07 10:57:00,
2013-06-07 07:02:00,55.7,54.9,29.96,North,360,1.0,2.0,97,0.03,,,0.09,VWS V14.01,2013-06-07 11:02:00,
2013-06-07 07:07:00,55.6,54.8,29.96,WNW,298,2.0,2.0,97,0.03,,,0.09,VWS V14.01,2013-06-07 11:07:00,
2013-06-07 07:13:00,55.6,54.8,29.96,WNW,292,0.0,3.0,97,0.04,,,0.10,VWS V14.01,2013-06-07 11:13:00,
2013-06-07 07:18:00,55.6,54.8,29.96,WNW,292,0.0,3.0,97,0.04,,,0.10,VWS V14.01,2013-06-07 11:18:00,
2013-06-07 07:23:00,55.7,54.9,29.96,WNW,294,1.0,3.0,97,0.05,,,0.11,VWS V14.01,2013-06-07 11:23:00,
2013-06-07 07:28:00,55.6,54.8,29.96,WNW,294,0.0,3.0,97,0.05,,,0.11,VWS V14.01,2013-06-07 11:28:00,
2013-06-07 07:33:00,55.5,54.7,29.96,WNW,294,0.0,1.0,97,0.05,,,0.12,VWS V14.01,2013-06-07 11:33:00,
2013-06-07 07:38:00,55.4,54.6,29.96,SSW,197,0.0,3.0,97,0.06,,,0.13,VWS V14.01,2013-06-07 11:38:00,
2013-06-07 07:43:00,55.3,54.5,29.96,NW,323,3.0,4.0,97,0.06,,,0.13,VWS V14.01,2013-06-07 11:43:00,
2013-06-07 07:48:00,55.2,54.4,29.95,NW,306,0.0,4.0,97,0.08,,,0.15,VWS V14.01,2013-06-07 11:48:00,
2013-06-07 07:53:00,55.3,54.5,29.96,NW,306,0.0,4.0,97,0.08,,,0.15,VWS V14.01,2013-06-07 11:53:00,
2013-06-07 07:58:00,55.3,54.5,29.95,NW,313,0.0,4.0,97,0.08,,,0.15,VWS V14.01,2013-06-07 11:58:00,
2013-06-07 08:03:00,55.1,54.3,29.95,NW,305,0.0,4.0,97,0.06,,,0.15,VWS V14.01,2013-06-07 12:03:00,
2013-06-07 08:08:00,55.1,54.3,29.95,NW,321,2.0,4.0,97,0.06,,,0.15,VWS V14.01,2013-06-07 12:08:00,
2013-06-07 08:13:00,55.1,54.3,29.95,NW,323,0.0,5.0,97,0.06,,,0.15,VWS V14.01,2013-06-07 12:13:00,
2013-06-07 08:18:00,55.2,54.4,29.95,NW,315,0.0,5.0,97,0.06,,,0.15,VWS V14.01,2013-06-07 12:18:00,
2013-06-07 08:23:00,55.3,54.5,29.95,NW,304,1.0,5.0,97,0.06,,,0.15,VWS V14.01,2013-06-07 12:23:00,
2013-06-07 08:28:00,55.2,54.4,29.95,WNW,288,0.0,5.0,97,0.07,,,0.16,VWS V14.01,2013-06-07 12:28:00,
2013-06-07 08:33:00,55.4,54.6,29.95,WNW,301,1.0,1.0,97,0.04,,,0.16,VWS V14.01,2013-06-07 12:33:00,
2013-06-07 08:38:00,55.5,54.7,29.95,WNW,285,0.0,3.0,97,0.04,,,0.16,VWS V14.01,2013-06-07 12:38:00,
2013-06-07 08:43:00,55.7,54.9,29.95,WNW,285,0.0,3.0,97,0.04,,,0.16,VWS V14.01,2013-06-07 12:43:00,
2013-06-07 08:48:00,55.9,55.3,29.95,WNW,285,0.0,3.0,98,0.05,,,0.17,VWS V14.01,2013-06-07 12:48:00,
2013-06-07 08:53:00,55.9,55.3,29.95,WNW,285,0.0,3.0,98,0.05,,,0.17,VWS V14.01,2013-06-07 12:53:00,
2013-06-07 08:58:00,56.0,55.5,29.95,WNW,285,0.0,3.0,98,0.05,,,0.17,VWS V14.01,2013-06-07 12:58:00,
2013-06-07 09:04:00,56.1,55.5,29.94,NW,322,1.0,3.0,98,0.02,,,0.17,VWS V14.01,2013-06-07 13:04:00,
2013-06-07 09:09:00,56.1,55.3,29.94,NW,305,0.0,3.0,97,0.02,,,0.17,VWS V14.01,2013-06-07 13:09:00,
2013-06-07 09:14:00,56.3,55.5,29.94,WNW,294,3.0,3.0,97,0.02,,,0.17,VWS V14.01,2013-06-07 13:14:00,
2013-06-07 09:19:00,56.3,55.5,29.94,WNW,292,0.0,3.0,97,0.03,,,0.18,VWS V14.01,2013-06-07 13:19:00,
2013-06-07 09:24:00,56.5,55.9,29.94,WNW,289,1.0,3.0,98,0.03,,,0.18,VWS V14.01,2013-06-07 13:24:00,
2013-06-07 09:29:00,56.5,55.9,29.94,WNW,288,0.0,3.0,98,0.04,,,0.19,VWS V14.01,2013-06-07 13:29:00,
2013-06-07 09:34:00,56.6,56.0,29.94,WNW,288,0.0,2.0,98,0.03,,,0.19,VWS V14.01,2013-06-07 13:34:00,
2013-06-07 09:39:00,56.7,55.9,29.94,West,278,3.0,4.0,97,0.03,,,0.19,VWS V14.01,2013-06-07 13:39:00,
2013-06-07 09:44:00,56.7,55.9,29.94,WNW,287,1.0,5.0,97,0.03,,,0.19,VWS V14.01,2013-06-07 13:44:00,
2013-06-07 09:49:00,56.7,55.9,29.94,WNW,299,0.0,7.0,97,0.03,,,0.19,VWS V14.01,2013-06-07 13:49:00,
2013-06-07 09:54:00,57.0,56.2,29.94,NW,310,3.0,7.0,97,0.05,,,0.21,VWS V14.01,2013-06-07 13:54:00,
2013-06-07 09:59:00,57.1,56.3,29.93,WNW,291,2.0,7.0,97,0.05,,,0.21,VWS V14.01,2013-06-07 13:59:00,
2013-06-07 10:04:00,57.1,56.3,29.93,West,276,1.0,3.0,97,0.04,,,0.21,VWS V14.01,2013-06-07 14:04:00,
2013-06-07 10:09:00,57.2,56.4,29.93,NW,321,1.0,4.0,97,0.04,,,0.21,VWS V14.01,2013-06-07 14:09:00,
2013-06-07 10:14:00,57.3,56.5,29.93,NW,317,0.0,6.0,97,0.05,,,0.22,VWS V14.01,2013-06-07 14:14:00,
2013-06-07 10:20:00,57.5,56.7,29.93,WNW,286,8.0,8.0,97,0.05,,,0.22,VWS V14.01,2013-06-07 14:20:00,
2013-06-07 10:25:00,57.5,56.7,29.93,West,272,1.0,8.0,97,0.06,,,0.23,VWS V14.01,2013-06-07 14:25:00,
2013-06-07 10:30:00,57.6,56.8,29.93,WNW,299,0.0,8.0,97,0.06,,,0.23,VWS V14.01,2013-06-07 14:30:00,
2013-06-07 10:35:00,57.7,56.9,29.93,WNW,294,1.0,4.0,97,0.04,,,0.23,VWS V14.01,2013-06-07 14:35:00,
2013-06-07 10:40:00,57.9,57.3,29.93,North,360,1.0,4.0,98,0.06,,,0.25,VWS V14.01,2013-06-07 14:40:00,
2013-06-07 10:45:00,57.8,57.0,29.93,West,281,0.0,4.0,97,0.06,,,0.25,VWS V14.01,2013-06-07 14:45:00,
2013-06-07 10:50:00,57.8,57.0,29.93,NNE,22,0.0,6.0,97,0.06,,,0.25,VWS V14.01,2013-06-07 14:50:00,
2013-06-07 10:55:00,58.0,57.2,29.93,NNW,345,1.0,6.0,97,0.07,,,0.26,VWS V14.01,2013-06-07 14:55:00,
2013-06-07 11:00:00,58.2,57.4,29.93,West,267,2.0,6.0,97,0.07,,,0.26,VWS V14.01,2013-06-07 15:00:00,
2013-06-07 11:05:00,58.2,57.4,29.93,WNW,298,0.0,3.0,97,0.06,,,0.27,VWS V14.01,2013-06-07 15:05:00,
2013-06-07 11:10:00,58.2,57.4,29.93,WNW,283,4.0,4.0,97,0.06,,,0.27,VWS V14.01,2013-06-07 15:10:00,
2013-06-07 11:15:00,58.2,57.4,29.93,NW,325,0.0,5.0,97,0.06,,,0.27,VWS V14.01,2013-06-07 15:15:00,
2013-06-07 11:20:00,58.2,57.4,29.92,WNW,291,0.0,5.0,97,0.08,,,0.29,VWS V14.01,2013-06-07 15:20:00,
2013-06-07 11:25:00,58.2,57.4,29.93,NNW,346,1.0,6.0,97,0.09,,,0.30,VWS V14.01,2013-06-07 15:25:00,
2013-06-07 11:30:00,58.1,57.3,29.93,West,274,0.0,6.0,97,0.12,,,0.33,VWS V14.01,2013-06-07 15:30:00,
2013-06-07 11:35:00,58.0,57.2,29.92,West,277,1.0,4.0,97,0.12,,,0.35,VWS V14.01,2013-06-07 15:35:00,
2013-06-07 11:41:00,58.0,57.2,29.92,NNW,328,0.0,4.0,97,0.13,,,0.36,VWS V14.01,2013-06-07 15:41:00,
2013-06-07 11:46:00,58.1,57.3,29.92,NNW,328,0.0,4.0,97,0.14,,,0.37,VWS V14.01,2013-06-07 15:46:00,
2013-06-07 11:51:00,58.2,57.4,29.92,NNW,327,0.0,4.0,97,0.14,,,0.37,VWS V14.01,2013-06-07 15:51:00,
2013-06-07 11:56:00,58.2,57.4,29.92,WNW,288,0.0,4.0,97,0.15,,,0.38,VWS V14.01,2013-06-07 15:56:00,
2013-06-07 12:01:00,58.4,57.8,29.92,WNW,288,1.0,1.0,98,0.14,,,0.40,VWS V14.01,2013-06-07 16:01:00,
2013-06-07 12:06:00,58.2,57.4,29.92,WNW,288,0.0,2.0,97,0.15,,,0.41,VWS V14.01,2013-06-07 16:06:00,
2013-06-07 12:11:00,58.2,57.4,29.92,WNW,291,0.0,2.0,97,0.17,,,0.43,VWS V14.01,2013-06-07 16:11:00,
2013-06-07 12:16:00,58.2,57.4,29.92,WNW,288,1.0,4.0,97,0.20,,,0.46,VWS V14.01,2013-06-07 16:16:00,
2013-06-07 12:21:00,58.2,57.4,29.92,North,9,0.0,4.0,97,0.22,,,0.48,VWS V14.01,2013-06-07 16:21:00,
2013-06-07 12:26:00,58.3,57.7,29.92,NNW,338,1.0,4.0,98,0.23,,,0.49,VWS V14.01,2013-06-07 16:26:00,
2013-06-07 12:31:00,58.4,57.8,29.92,WNW,290,0.0,0.0,98,0.16,,,0.49,VWS V14.01,2013-06-07 16:31:00,
2013-06-07 12:36:00,58.6,58.0,29.92,NW,321,1.0,3.0,98,0.17,,,0.50,VWS V14.01,2013-06-07 16:36:00,
2013-06-07 12:41:00,58.7,58.1,29.91,West,276,1.0,3.0,98,0.18,,,0.51,VWS V14.01,2013-06-07 16:41:00,
2013-06-07 12:47:00,58.9,58.3,29.91,North,5,0.0,5.0,98,0.18,,,0.51,VWS V14.01,2013-06-07 16:47:00,
2013-06-07 12:52:00,59.1,58.5,29.91,SSW,207,0.0,5.0,98,0.18,,,0.51,VWS V14.01,2013-06-07 16:52:00,
2013-06-07 12:57:00,59.1,58.5,29.90,North,5,0.0,5.0,98,0.18,,,0.51,VWS V14.01,2013-06-07 16:57:00,
2013-06-07 13:02:00,59.3,58.7,29.90,West,272,0.0,1.0,98,0.11,,,0.51,VWS V14.01,2013-06-07 17:02:00,
2013-06-07 13:07:00,59.4,58.5,29.90,WNW,291,1.0,2.0,97,0.12,,,0.52,VWS V14.01,2013-06-07 17:07:00,
2013-06-07 13:12:00,59.5,58.7,29.90,NNE,13,0.0,3.0,97,0.13,,,0.53,VWS V14.01,2013-06-07 17:12:00,
2013-06-07 13:17:00,59.5,58.9,29.90,WNW,286,0.0,3.0,98,0.13,,,0.53,VWS V14.01,2013-06-07 17:17:00,
2013-06-07 13:22:00,59.7,59.1,29.90,NNE,23,2.0,3.0,98,0.14,,,0.54,VWS V14.01,2013-06-07 17:22:00,
2013-06-07 13:27:00,59.9,59.3,29.89,North,5,1.0,3.0,98,0.15,,,0.55,VWS V14.01,2013-06-07 17:27:00,
2013-06-07 13:32:00,60.0,59.4,29.89,ENE,63,1.0,6.0,98,0.06,,,0.55,VWS V14.01,2013-06-07 17:32:00,
2013-06-07 13:37:00,59.9,59.0,29.89,WNW,294,0.0,6.0,97,0.06,,,0.55,VWS V14.01,2013-06-07 17:37:00,
2013-06-07 13:42:00,59.8,59.0,29.89,East,96,1.0,6.0,97,0.07,,,0.56,VWS V14.01,2013-06-07 17:42:00,
2013-06-07 13:47:00,59.9,59.0,29.89,NW,306,2.0,6.0,97,0.07,,,0.56,VWS V14.01,2013-06-07 17:47:00,
2013-06-07 13:52:00,60.0,59.2,29.89,SE,126,0.0,6.0,97,0.08,,,0.57,VWS V14.01,2013-06-07 17:52:00,
2013-06-07 13:57:00,59.9,59.0,29.88,NNW,327,0.0,6.0,97,0.08,,,0.57,VWS V14.01,2013-06-07 17:57:00,
2013-06-07 14:02:00,60.0,59.2,29.88,WNW,294,3.0,3.0,97,0.06,,,0.57,VWS V14.01,2013-06-07 18:02:00,
2013-06-07 14:07:00,60.0,59.2,29.88,SSW,210,0.0,7.0,97,0.07,,,0.58,VWS V14.01,2013-06-07 18:07:00,
2013-06-07 14:13:00,60.0,59.2,29.88,WNW,288,4.0,7.0,97,0.08,,,0.59,VWS V14.01,2013-06-07 18:13:00,
2013-06-07 14:18:00,60.0,59.2,29.88,SE,132,2.0,7.0,97,0.08,,,0.59,VWS V14.01,2013-06-07 18:18:00,
2013-06-07 14:23:00,60.0,59.2,29.88,SW,216,0.0,7.0,97,0.09,,,0.60,VWS V14.01,2013-06-07 18:23:00,
2013-06-07 14:28:00,60.0,59.2,29.88,WNW,302,0.0,7.0,97,0.10,,,0.61,VWS V14.01,2013-06-07 18:28:00,
2013-06-07 14:33:00,60.1,59.2,29.88,WNW,301,0.0,2.0,97,0.06,,,0.61,VWS V14.01,2013-06-07 18:33:00,
2013-06-07 14:38:00,60.1,59.2,29.88,NW,309,2.0,2.0,97,0.07,,,0.62,VWS V14.01,2013-06-07 18:38:00,
2013-06-07 14:43:00,60.2,59.3,29.88,WNW,293,0.0,3.0,97,0.08,,,0.63,VWS V14.01,2013-06-07 18:43:00,
2013-06-07 14:48:00,60.1,59.2,29.88,NW,318,0.0,5.0,97,0.08,,,0.63,VWS V14.01,2013-06-07 18:48:00,
2013-06-07 14:54:00,60.2,59.3,29.87,South,184,2.0,5.0,97,0.08,,,0.63,VWS V14.01,2013-06-07 18:54:00,
2013-06-07 14:59:00,60.2,59.3,29.88,NNW,333,0.0,5.0,97,0.09,,,0.64,VWS V14.01,2013-06-07 18:59:00,
2013-06-07 15:04:00,60.2,59.3,29.87,WNW,288,0.0,1.0,97,0.08,,,0.65,VWS V14.01,2013-06-07 19:04:00,
2013-06-07 15:09:00,60.2,59.3,29.87,WNW,285,1.0,3.0,97,0.08,,,0.65,VWS V14.01,2013-06-07 19:09:00,
2013-06-07 15:15:00,60.2,59.3,29.87,WNW,293,0.0,3.0,97,0.09,,,0.66,VWS V14.01,2013-06-07 19:15:00,
2013-06-07 15:20:00,60.2,59.3,29.87,West,277,0.0,4.0,97,0.10,,,0.67,VWS V14.01,2013-06-07 19:20:00,
2013-06-07 15:25:00,60.3,59.5,29.87,West,277,0.0,4.0,97,0.10,,,0.67,VWS V14.01,2013-06-07 19:25:00,
2013-06-07 15:30:00,60.3,59.5,29.87,NNE,15,0.0,4.0,97,0.11,,,0.68,VWS V14.01,2013-06-07 19:30:00,
2013-06-07 15:35:00,60.3,59.5,29.86,WNW,294,0.0,4.0,97,0.09,,,0.70,VWS V14.01,2013-06-07 19:35:00,
2013-06-07 15:40:00,60.3,59.5,29.86,WNW,300,0.0,6.0,97,0.10,,,0.71,VWS V14.01,2013-06-07 19:40:00,
2013-06-07 15:45:00,60.4,59.8,29.86,North,355,3.0,6.0,98,0.10,,,0.71,VWS V14.01,2013-06-07 19:45:00,
2013-06-07 15:50:00,60.4,59.8,29.85,NW,321,0.0,6.0,98,0.10,,,0.71,VWS V14.01,2013-06-07 19:50:00,
2013-06-07 15:55:00,60.3,59.5,29.85,WSW,248,2.0,6.0,97,0.11,,,0.72,VWS V14.01,2013-06-07 19:55:00,
2013-06-07 16:00:00,60.2,59.3,29.85,West,265,0.0,6.0,97,0.11,,,0.72,VWS V14.01,2013-06-07 20:00:00,
2013-06-07 16:05:00,60.1,59.2,29.85,WNW,286,0.0,3.0,97,0.08,,,0.73,VWS V14.01,2013-06-07 20:05:00,
2013-06-07 16:10:00,60.2,59.3,29.85,WNW,286,0.0,3.0,97,0.08,,,0.73,VWS V14.01,2013-06-07 20:10:00,
2013-06-07 16:15:00,60.2,59.6,29.85,North,349,0.0,3.0,98,0.08,,,0.73,VWS V14.01,2013-06-07 20:15:00,
2013-06-07 16:21:00,60.1,59.2,29.84,North,355,0.0,3.0,97,0.08,,,0.73,VWS V14.01,2013-06-07 20:21:00,
2013-06-07 16:26:00,60.0,59.2,29.84,NW,318,1.0,3.0,97,0.09,,,0.74,VWS V14.01,2013-06-07 20:26:00,
2013-06-07 16:31:00,59.9,59.0,29.84,NW,318,0.0,1.0,97,0.06,,,0.75,VWS V14.01,2013-06-07 20:31:00,
2013-06-07 16:36:00,59.8,59.0,29.84,West,266,0.0,7.0,97,0.06,,,0.75,VWS V14.01,2013-06-07 20:36:00,
2013-06-07 16:41:00,59.8,59.0,29.83,West,281,0.0,7.0,97,0.08,,,0.77,VWS V14.01,2013-06-07 20:41:00,
2013-06-07 16:46:00,59.8,59.0,29.83,WNW,294,0.0,7.0,97,0.08,,,0.77,VWS V14.01,2013-06-07 20:46:00,
2013-06-07 16:51:00,59.7,59.1,29.83,NW,304,0.0,7.0,98,0.09,,,0.78,VWS V14.01,2013-06-07 20:51:00,
2013-06-07 16:56:00,59.6,58.8,29.83,WNW,295,0.0,7.0,97,0.10,,,0.79,VWS V14.01,2013-06-07 20:56:00,
2013-06-07 17:02:00,59.5,58.7,29.83,WNW,288,0.0,5.0,97,0.08,,,0.80,VWS V14.01,2013-06-07 21:02:00,
2013-06-07 17:07:00,59.5,58.7,29.83,WNW,288,1.0,5.0,97,0.09,,,0.81,VWS V14.01,2013-06-07 21:07:00,
2013-06-07 17:12:00,59.4,58.5,29.83,WNW,288,2.0,5.0,97,0.09,,,0.81,VWS V14.01,2013-06-07 21:12:00,
2013-06-07 17:17:00,59.3,58.5,29.83,West,278,0.0,5.0,97,0.10,,,0.82,VWS V14.01,2013-06-07 21:17:00,
2013-06-07 17:22:00,59.3,58.5,29.82,WNW,290,0.0,5.0,97,0.11,,,0.83,VWS V14.01,2013-06-07 21:22:00,
2013-06-07 17:28:00,59.2,58.3,29.82,WNW,288,0.0,5.0,97,0.11,,,0.83,VWS V14.01,2013-06-07 21:28:00,
2013-06-07 17:33:00,59.1,58.5,29.82,NW,305,1.0,3.0,98,0.10,,,0.85,VWS V14.01,2013-06-07 21:33:00,
2013-06-07 17:38:00,59.0,58.4,29.82,NW,323,0.0,3.0,98,0.12,,,0.87,VWS V14.01,2013-06-07 21:38:00,
2013-06-07 17:43:00,59.0,58.4,29.81,WNW,301,0.0,4.0,98,0.14,,,0.89,VWS V14.01,2013-06-07 21:43:00,
2013-06-07 17:48:00,59.0,58.4,29.81,North,360,0.0,4.0,98,0.14,,,0.89,VWS V14.01,2013-06-07 21:48:00,
2013-06-07 17:53:00,58.9,58.3,29.81,WNW,302,3.0,6.0,98,0.16,,,0.91,VWS V14.01,2013-06-07 21:53:00,
2013-06-07 17:59:00,58.7,58.1,29.80,NW,315,1.0,6.0,98,0.18,,,0.93,VWS V14.01,2013-06-07 21:59:00,
2013-06-07 18:04:00,58.7,58.1,29.79,WNW,302,0.0,1.0,98,0.17,,,0.96,VWS V14.01,2013-06-07 22:04:00,
2013-06-07 18:09:00,58.6,58.0,29.79,WNW,284,2.0,3.0,98,0.20,,,0.99,VWS V14.01,2013-06-07 22:09:00,
2013-06-07 18:14:00,58.5,57.9,29.79,WNW,290,0.0,6.0,98,0.22,,,1.01,VWS V14.01,2013-06-07 22:14:00,
2013-06-07 18:20:00,58.4,57.8,29.78,NNE,12,0.0,6.0,98,0.25,,,1.04,VWS V14.01,2013-06-07 22:20:00,
2013-06-07 18:25:00,58.3,57.7,29.77,East,90,2.0,6.0,98,0.28,,,1.07,VWS V14.01,2013-06-07 22:25:00,
2013-06-07 18:30:00,58.2,57.6,29.75,WNW,294,2.0,6.0,98,0.30,,,1.09,VWS V14.01,2013-06-07 22:30:00,
2013-06-07 18:35:00,58.1,57.5,29.76,NW,306,0.0,3.0,98,0.25,,,1.10,VWS V14.01,2013-06-07 22:35:00,
2013-06-07 18:40:00,58.1,57.5,29.77,WNW,303,0.0,5.0,98,0.26,,,1.11,VWS V14.01,2013-06-07 22:40:00,
2013-06-07 18:45:00,58.2,57.6,29.77,WNW,292,0.0,5.0,98,0.26,,,1.11,VWS V14.01,2013-06-07 22:45:00,
2013-06-07 18:50:00,58.3,57.7,29.78,West,271,0.0,5.0,98,0.26,,,1.11,VWS V14.01,2013-06-07 22:50:00,
2013-06-07 18:55:00,58.4,57.8,29.77,WNW,301,0.0,5.0,98,0.26,,,1.11,VWS V14.01,2013-06-07 22:55:00,
2013-06-07 19:00:00,58.4,57.8,29.78,SSW,192,0.0,6.0,98,0.26,,,1.11,VWS V14.01,2013-06-07 23:00:00,
2013-06-07 19:06:00,58.4,57.8,29.78,East,97,0.0,3.0,98,0.17,,,1.11,VWS V14.01,2013-06-07 23:06:00,
2013-06-07 19:11:00,58.5,57.9,29.78,NNE,13,0.0,3.0,98,0.17,,,1.11,VWS V14.01,2013-06-07 23:11:00,
2013-06-07 19:16:00,58.5,57.9,29.77,NNW,346,1.0,5.0,98,0.17,,,1.11,VWS V14.01,2013-06-07 23:16:00,
2013-06-07 19:21:00,58.5,57.9,29.77,NNW,346,0.0,5.0,98,0.17,,,1.11,VWS V14.01,2013-06-07 23:21:00,
2013-06-07 19:26:00,58.5,57.9,29.78,NNW,346,0.0,5.0,98,0.17,,,1.11,VWS V14.01,2013-06-07 23:26:00,
2013-06-07 19:32:00,58.5,57.9,29.78,NNW,346,1.0,1.0,98,0.02,,,1.11,VWS V14.01,2013-06-07 23:32:00,
2013-06-07 19:37:00,58.4,57.8,29.77,SE,136,0.0,2.0,98,0.02,,,1.11,VWS V14.01,2013-06-07 23:37:00,
2013-06-07 19:42:00,58.2,57.6,29.76,NNW,340,0.0,2.0,98,0.02,,,1.11,VWS V14.01,2013-06-07 23:42:00,
2013-06-07 19:47:00,58.1,57.5,29.77,North,5,0.0,3.0,98,0.02,,,1.11,VWS V14.01,2013-06-07 23:47:00,
2013-06-07 19:52:00,58.1,57.5,29.77,WNW,284,1.0,5.0,98,0.03,,,1.12,VWS V14.01,2013-06-07 23:52:00,
2013-06-07 19:57:00,58.1,57.5,29.77,West,275,0.0,5.0,98,0.04,,,1.13,VWS V14.01,2013-06-07 23:57:00,
2013-06-07 20:02:00,58.0,57.4,29.77,West,275,0.0,1.0,98,0.02,,,1.13,VWS V14.01,2013-06-08 00:02:00,
2013-06-07 20:07:00,58.0,57.4,29.77,WNW,298,1.0,1.0,98,0.02,,,1.13,VWS V14.01,2013-06-08 00:07:00,
2013-06-07 20:13:00,57.9,57.3,29.77,West,280,0.0,3.0,98,0.02,,,1.13,VWS V14.01,2013-06-08 00:13:00,
2013-06-07 20:18:00,57.8,57.2,29.77,WNW,290,0.0,3.0,98,0.02,,,1.13,VWS V14.01,2013-06-08 00:18:00,
2013-06-07 20:23:00,57.7,57.1,29.76,North,355,0.0,3.0,98,0.02,,,1.13,VWS V14.01,2013-06-08 00:23:00,
2013-06-07 20:28:00,57.6,57.0,29.76,WNW,297,1.0,4.0,98,0.02,,,1.13,VWS V14.01,2013-06-08 00:28:00,
2013-06-07 20:34:00,57.5,56.9,29.76,NNW,338,1.0,4.0,98,0.02,,,1.13,VWS V14.01,2013-06-08 00:34:00,
2013-06-07 20:39:00,57.4,56.8,29.76,NNW,343,0.0,4.0,98,0.02,,,1.13,VWS V14.01,2013-06-08 00:39:00,
2013-06-07 20:44:00,57.3,56.7,29.76,WNW,286,7.0,7.0,98,0.02,,,1.13,VWS V14.01,2013-06-08 00:44:00,
2013-06-07 20:50:00,57.2,56.6,29.76,NNW,330,1.0,8.0,98,0.02,,,1.13,VWS V14.01,2013-06-08 00:50:00,
2013-06-07 20:55:00,57.2,56.6,29.76,North,5,0.0,8.0,98,0.02,,,1.13,VWS V14.01,2013-06-08 00:55:00,
2013-06-07 21:00:00,57.1,56.5,29.76,NNW,344,1.0,8.0,98,0.02,,,1.13,VWS V14.01,2013-06-08 01:00:00,
2013-06-07 21:05:00,57.0,56.4,29.76,West,276,0.0,3.0,98,0.00,,,1.13,VWS V14.01,2013-06-08 01:05:00,
2013-06-07 21:10:00,56.9,56.3,29.76,NNW,348,0.0,3.0,98,0.02,,,1.15,VWS V14.01,2013-06-08 01:10:00,
2013-06-07 21:15:00,56.8,56.2,29.75,North,360,2.0,3.0,98,0.02,,,1.15,VWS V14.01,2013-06-08 01:15:00,
2013-06-07 21:20:00,56.7,56.1,29.75,North,355,0.0,3.0,98,0.04,,,1.17,VWS V14.01,2013-06-08 01:20:00,
2013-06-07 21:25:00,56.6,56.0,29.75,NNW,333,0.0,3.0,98,0.04,,,1.17,VWS V14.01,2013-06-08 01:25:00,
2013-06-07 21:30:00,56.6,56.0,29.75,WNW,289,0.0,7.0,98,0.04,,,1.17,VWS V14.01,2013-06-08 01:30:00,
2013-06-07 21:35:00,56.5,55.9,29.75,North,360,0.0,2.0,98,0.05,,,1.18,VWS V14.01,2013-06-08 01:35:00,
2013-06-07 21:41:00,56.5,55.9,29.74,WNW,289,0.0,2.0,98,0.06,,,1.19,VWS V14.01,2013-06-08 01:41:00,
2013-06-07 21:46:00,56.3,55.8,29.74,NW,310,0.0,4.0,98,0.07,,,1.20,VWS V14.01,2013-06-08 01:46:00,
2013-06-07 21:51:00,56.3,55.8,29.74,NW,310,0.0,4.0,98,0.08,,,1.21,VWS V14.01,2013-06-08 01:51:00,
2013-06-07 21:56:00,56.2,55.7,29.73,WNW,299,0.0,4.0,98,0.08,,,1.21,VWS V14.01,2013-06-08 01:56:00,
2013-06-07 22:02:00,56.1,55.5,29.75,SW,234,0.0,1.0,98,0.10,,,1.23,VWS V14.01,2013-06-08 02:02:00,
2013-06-07 22:07:00,56.1,55.5,29.75,SW,234,0.0,1.0,98,0.12,,,1.25,VWS V14.01,2013-06-08 02:07:00,
2013-06-07 22:12:00,56.0,55.5,29.76,SW,234,0.0,2.0,98,0.12,,,1.25,VWS V14.01,2013-06-08 02:12:00,
2013-06-07 22:17:00,56.0,55.5,29.76,SW,234,0.0,2.0,98,0.12,,,1.25,VWS V14.01,2013-06-08 02:17:00,
2013-06-07 22:22:00,55.9,55.3,29.73,WNW,294,0.0,3.0,98,0.13,,,1.26,VWS V14.01,2013-06-08 02:22:00,
2013-06-07 22:27:00,55.8,55.2,29.75,West,266,0.0,3.0,98,0.14,,,1.27,VWS V14.01,2013-06-08 02:27:00,
2013-06-07 22:32:00,55.8,55.2,29.75,West,265,0.0,1.0,98,0.11,,,1.28,VWS V14.01,2013-06-08 02:32:00,
2013-06-07 22:38:00,55.7,55.2,29.73,WNW,294,0.0,5.0,98,0.12,,,1.29,VWS V14.01,2013-06-08 02:38:00,
2013-06-07 22:43:00,55.6,55.0,29.73,SSW,207,0.0,5.0,98,0.12,,,1.29,VWS V14.01,2013-06-08 02:43:00,
2013-06-07 22:48:00,55.5,55.0,29.73,West,265,0.0,5.0,98,0.13,,,1.30,VWS V14.01,2013-06-08 02:48:00,
2013-06-07 22:53:00,55.4,54.8,29.73,West,265,0.0,5.0,98,0.14,,,1.31,VWS V14.01,2013-06-08 02:53:00,
2013-06-07 22:58:00,55.4,54.8,29.72,East,91,1.0,5.0,98,0.15,,,1.32,VWS V14.01,2013-06-08 02:58:00,
2013-06-07 23:03:00,55.3,54.8,29.72,East,80,0.0,1.0,98,0.10,,,1.33,VWS V14.01,2013-06-08 03:03:00,
2013-06-07 23:08:00,55.2,54.7,29.71,WNW,292,0.0,2.0,98,0.10,,,1.33,VWS V14.01,2013-06-08 03:08:00,
2013-06-07 23:14:00,55.2,54.7,29.71,NNE,26,0.0,2.0,98,0.10,,,1.33,VWS V14.01,2013-06-08 03:14:00,
2013-06-07 23:19:00,55.1,54.5,29.70,WNW,296,0.0,2.0,98,0.12,,,1.35,VWS V14.01,2013-06-08 03:19:00,
2013-06-07 23:24:00,55.0,54.5,29.71,NE,52,0.0,2.0,98,0.12,,,1.35,VWS V14.01,2013-06-08 03:24:00,
2013-06-07 23:29:00,55.0,54.5,29.69,NE,34,0.0,6.0,98,0.15,,,1.38,VWS V14.01,2013-06-08 03:29:00,
2013-06-07 23:34:00,54.8,54.2,29.68,NNW,337,0.0,4.0,98,0.17,,,1.44,VWS V14.01,2013-06-08 03:34:00,
2013-06-07 23:39:00,54.7,54.2,29.68,NW,312,0.0,4.0,98,0.18,,,1.45,VWS V14.01,2013-06-08 03:39:00,
2013-06-07 23:44:00,54.6,54.0,29.68,SW,230,0.0,6.0,98,0.18,,,1.45,VWS V14.01,2013-06-08 03:44:00,
2013-06-07 23:49:00,54.6,54.0,29.68,South,180,2.0,6.0,98,0.20,,,1.47,VWS V14.01,2013-06-08 03:49:00,
2013-06-07 23:54:00,54.6,54.0,29.69,South,180,0.0,6.0,98,0.20,,,1.47,VWS V14.01,2013-06-08 03:54:00,